Erzincan Airport


Codes: LTCD/ERC
Name: Erzincan Airport
City: Erzincan
Country: Turkey
Elevation: 3783 ft.
Wikipedia:

Photos at Erzincan Airport


   Photos courtesy of SpottingLog. You can add your own sightings and photos by signing up for a free trial today.



No photos found.

Weather at Erzincan Airport


Time (UTC)DescriptionTempratureWindCloud coverageVisibilityPressureHumidity
23-May-2024 21:00Broken Clouds14°C2 mph, E67%10000m1012hPa78%
24-May-2024 00:00Broken Clouds13°C4 mph, SE56%10000m1011hPa73%
24-May-2024 03:00Overcast Clouds14°C4 mph, E98%10000m1009hPa71%
24-May-2024 06:00Scattered Clouds19°C7 mph, SE49%10000m1007hPa56%
24-May-2024 09:00Light Rain22°C9 mph, S42%10000m1006hPa38%
24-May-2024 12:00Light Rain20°C16 mph, S73%10000m1006hPa44%
24-May-2024 15:00Moderate Rain11°C9 mph, NW100%5130m1012hPa90%
24-May-2024 18:00Moderate Rain12°C2 mph, E100%10000m1012hPa82%
24-May-2024 21:00Light Rain11°C2 mph, E38%10000m1010hPa81%
25-May-2024 00:00Broken Clouds13°C2 mph, E69%10000m1009hPa75%
25-May-2024 03:00Overcast Clouds13°C2 mph, SE100%10000m1009hPa72%
25-May-2024 06:00Light Rain16°C2 mph, S100%10000m1009hPa62%
25-May-2024 09:00Light Rain20°C2 mph, SW99%10000m1007hPa44%
25-May-2024 12:00Light Rain21°C7 mph, S97%10000m1005hPa38%
25-May-2024 15:00Light Rain19°C2 mph, SW96%10000m1006hPa51%
25-May-2024 18:00Moderate Rain14°C4 mph, NW98%6866m1010hPa86%
25-May-2024 21:00Moderate Rain12°C7 mph, NW100%10000m1012hPa88%
26-May-2024 00:00Light Rain11°C0 mph, SE90%10000m1012hPa91%
26-May-2024 03:00Overcast Clouds12°C2 mph, SE100%10000m1013hPa84%
26-May-2024 06:00Light Rain14°C2 mph, SW100%10000m1013hPa74%
26-May-2024 09:00Light Rain18°C4 mph, S84%10000m1012hPa62%
26-May-2024 12:00Light Rain20°C4 mph, SW82%10000m1011hPa55%
26-May-2024 15:00Moderate Rain19°C2 mph, SW88%10000m1012hPa59%
26-May-2024 18:00Light Rain15°C2 mph, NE69%10000m1014hPa76%
26-May-2024 21:00Light Rain14°C2 mph, NE93%10000m1015hPa80%
27-May-2024 00:00Light Rain13°C2 mph, E77%10000m1015hPa80%
27-May-2024 03:00Few Clouds14°C2 mph, SE16%10000m1016hPa77%
27-May-2024 06:00Few Clouds18°C4 mph, SE24%10000m1015hPa61%
27-May-2024 09:00Clear Sky22°C4 mph, S2%10000m1013hPa44%
27-May-2024 12:00Clear Sky23°C7 mph, S9%10000m1013hPa38%
27-May-2024 15:00Broken Clouds21°C7 mph, SE63%10000m1013hPa50%
27-May-2024 18:00Scattered Clouds16°C7 mph, E38%10000m1015hPa62%
27-May-2024 21:00Scattered Clouds16°C7 mph, E50%10000m1016hPa55%
28-May-2024 00:00Scattered Clouds15°C4 mph, SE48%10000m1015hPa57%
28-May-2024 03:00Light Rain15°C4 mph, E100%10000m1017hPa72%
28-May-2024 06:00Light Rain17°C2 mph, SE100%10000m1017hPa64%
28-May-2024 09:00Light Rain20°C13 mph, SE100%10000m1015hPa52%
28-May-2024 12:00Light Rain21°C4 mph, SW83%10000m1012hPa50%
28-May-2024 15:00Light Rain21°C2 mph, S76%10000m1011hPa50%
28-May-2024 18:00Light Rain14°C9 mph, N72%10000m1015hPa83%